Terminal Aerodrome Forecast
Issued by NWS

Home | Current Version | Previous Version | Text Only | Print | Product List | Glossary On
Versions: 1 2 3 4 5 6 7 8 9 10 11 12 13 14 15
000
FTUS44 KLZK 181900 AAA
TAFADF
TAF AMD
KADF 181903Z 1819/1918 04004KT 6SM BR OVC005
     FM190100 05003KT 5SM BR OVC004
     FM190800 05003KT 3SM BR OVC002
      TEMPO 1909/1913 1SM -DZ BR
     FM191600 05005KT 6SM BR VCSH OVC007=

USA.gov is the U.S. government's official web portal to all federal, state and local government web resources and services.